sensor_id;sensor_type;location;lat;lon;timestamp;pressure;altitude;pressure_sealevel;temperature;humidity
20942;BME280;10630;53.734;10.282;2022-12-07T00:02:11;100762.53;;;9.66;69.28
20942;BME280;10630;53.734;10.282;2022-12-07T00:04:38;100756.34;;;9.23;70.43
20942;BME280;10630;53.734;10.282;2022-12-07T00:07:04;100754.41;;;9.33;70.75
20942;BME280;10630;53.734;10.282;2022-12-07T00:09:30;100757.78;;;9.43;70.04
20942;BME280;10630;53.734;10.282;2022-12-07T00:11:58;100751.47;;;9.10;70.85
20942;BME280;10630;53.734;10.282;2022-12-07T00:14:25;100739.41;;;9.50;70.99
20942;BME280;10630;53.734;10.282;2022-12-07T00:16:51;100745.63;;;9.32;71.32
20942;BME280;10630;53.734;10.282;2022-12-07T00:19:18;100746.75;;;9.30;71.63
20942;BME280;10630;53.734;10.282;2022-12-07T00:21:45;100742.06;;;9.50;71.58
20942;BME280;10630;53.734;10.282;2022-12-07T00:24:13;100730.88;;;9.46;71.31
20942;BME280;10630;53.734;10.282;2022-12-07T00:26:40;100732.13;;;9.60;71.60
20942;BME280;10630;53.734;10.282;2022-12-07T00:29:13;100730.34;;;9.77;71.25
20942;BME280;10630;53.734;10.282;2022-12-07T00:31:40;100728.03;;;9.74;71.87
20942;BME280;10630;53.734;10.282;2022-12-07T00:34:09;100721.16;;;9.21;72.55
20942;BME280;10630;53.734;10.282;2022-12-07T00:36:37;100719.94;;;9.49;73.10
20942;BME280;10630;53.734;10.282;2022-12-07T00:39:04;100724.16;;;9.60;71.81
20942;BME280;10630;53.734;10.282;2022-12-07T00:41:31;100725.03;;;9.77;72.40
20942;BME280;10630;53.734;10.282;2022-12-07T00:43:58;100725.00;;;9.61;73.36
20942;BME280;10630;53.734;10.282;2022-12-07T00:46:25;100715.44;;;9.85;71.93
20942;BME280;10630;53.734;10.282;2022-12-07T00:48:53;100703.75;;;9.61;72.53
20942;BME280;10630;53.734;10.282;2022-12-07T00:51:22;100703.66;;;9.95;71.99
20942;BME280;10630;53.734;10.282;2022-12-07T00:53:50;100707.00;;;10.14;71.01
20942;BME280;10630;53.734;10.282;2022-12-07T00:56:18;100701.41;;;9.66;73.91
20942;BME280;10630;53.734;10.282;2022-12-07T00:58:49;100700.16;;;9.95;72.64
20942;BME280;10630;53.734;10.282;2022-12-07T01:01:18;100693.53;;;9.99;72.12
20942;BME280;10630;53.734;10.282;2022-12-07T01:03:45;100693.63;;;9.64;72.54
20942;BME280;10630;53.734;10.282;2022-12-07T01:06:16;100691.41;;;9.52;72.79
20942;BME280;10630;53.734;10.282;2022-12-07T01:09:02;100690.22;;;9.46;74.48
20942;BME280;10630;53.734;10.282;2022-12-07T01:11:30;100686.59;;;9.55;75.21
20942;BME280;10630;53.734;10.282;2022-12-07T01:13:58;100684.00;;;9.29;74.87
20942;BME280;10630;53.734;10.282;2022-12-07T01:16:28;100675.94;;;9.47;74.89
20942;BME280;10630;53.734;10.282;2022-12-07T01:18:56;100675.91;;;9.90;73.94
20942;BME280;10630;53.734;10.282;2022-12-07T01:21:24;100679.03;;;9.34;74.84
20942;BME280;10630;53.734;10.282;2022-12-07T01:23:51;100674.88;;;9.74;75.86
20942;BME280;10630;53.734;10.282;2022-12-07T01:26:28;100668.09;;;10.13;74.16
20942;BME280;10630;53.734;10.282;2022-12-07T01:28:55;100666.75;;;9.92;74.24
20942;BME280;10630;53.734;10.282;2022-12-07T01:31:22;100675.56;;;9.93;74.89
20942;BME280;10630;53.734;10.282;2022-12-07T01:33:58;100673.50;;;9.54;76.00
20942;BME280;10630;53.734;10.282;2022-12-07T01:41:56;100653.78;;;9.89;74.13
20942;BME280;10630;53.734;10.282;2022-12-07T01:45:14;100661.19;;;9.53;74.05
20942;BME280;10630;53.734;10.282;2022-12-07T01:47:19;100665.94;;;9.84;74.46
20942;BME280;10630;53.734;10.282;2022-12-07T01:49:47;100668.91;;;9.80;74.03
20942;BME280;10630;53.734;10.282;2022-12-07T01:52:16;100669.22;;;9.69;74.60
20942;BME280;10630;53.734;10.282;2022-12-07T01:54:45;100670.13;;;10.11;74.05
20942;BME280;10630;53.734;10.282;2022-12-07T01:57:14;100671.50;;;9.64;75.67
20942;BME280;10630;53.734;10.282;2022-12-07T01:59:42;100666.22;;;9.72;74.31
20942;BME280;10630;53.734;10.282;2022-12-07T02:02:11;100666.19;;;9.64;74.95
20942;BME280;10630;53.734;10.282;2022-12-07T02:04:39;100660.84;;;9.13;77.86
20942;BME280;10630;53.734;10.282;2022-12-07T02:07:06;100662.91;;;9.87;76.13
20942;BME280;10630;53.734;10.282;2022-12-07T02:09:34;100661.00;;;10.38;72.38
20942;BME280;10630;53.734;10.282;2022-12-07T02:12:02;100663.91;;;9.77;72.93
20942;BME280;10630;53.734;10.282;2022-12-07T02:14:32;100671.88;;;9.86;73.78
20942;BME280;10630;53.734;10.282;2022-12-07T02:20:00;100652.75;;;9.74;74.80
20942;BME280;10630;53.734;10.282;2022-12-07T02:27:40;100643.34;;;10.04;73.59
20942;BME280;10630;53.734;10.282;2022-12-07T02:30:18;100642.34;;;10.63;70.77
20942;BME280;10630;53.734;10.282;2022-12-07T02:35:15;100653.16;;;10.61;69.37
20942;BME280;10630;53.734;10.282;2022-12-07T02:40:19;100646.31;;;9.76;75.25
20942;BME280;10630;53.734;10.282;2022-12-07T02:43:08;100653.69;;;9.48;73.39
20942;BME280;10630;53.734;10.282;2022-12-07T02:45:37;100648.66;;;10.04;74.97
20942;BME280;10630;53.734;10.282;2022-12-07T02:48:06;100640.69;;;10.04;73.26
20942;BME280;10630;53.734;10.282;2022-12-07T02:50:35;100634.03;;;10.00;71.93
20942;BME280;10630;53.734;10.282;2022-12-07T02:53:02;100639.00;;;9.87;72.76
20942;BME280;10630;53.734;10.282;2022-12-07T02:55:31;100633.63;;;9.54;73.76
20942;BME280;10630;53.734;10.282;2022-12-07T03:00:37;100638.13;;;8.84;76.28
20942;BME280;10630;53.734;10.282;2022-12-07T03:03:11;100645.38;;;9.08;75.53
20942;BME280;10630;53.734;10.282;2022-12-07T03:06:14;100641.13;;;9.15;76.00
20942;BME280;10630;53.734;10.282;2022-12-07T03:08:51;100651.44;;;8.21;78.29
20942;BME280;10630;53.734;10.282;2022-12-07T03:11:29;100651.88;;;8.35;78.05
20942;BME280;10630;53.734;10.282;2022-12-07T03:14:02;100647.34;;;8.27;81.68
20942;BME280;10630;53.734;10.282;2022-12-07T03:16:35;100649.63;;;8.04;82.85
20942;BME280;10630;53.734;10.282;2022-12-07T03:19:15;100649.09;;;8.18;82.77
20942;BME280;10630;53.734;10.282;2022-12-07T03:21:48;100646.72;;;7.79;83.71
20942;BME280;10630;53.734;10.282;2022-12-07T03:24:20;100648.94;;;8.02;83.43
20942;BME280;10630;53.734;10.282;2022-12-07T03:26:49;100641.75;;;7.94;80.62
20942;BME280;10630;53.734;10.282;2022-12-07T03:29:21;100646.56;;;7.63;82.69
20942;BME280;10630;53.734;10.282;2022-12-07T03:31:51;100636.63;;;7.92;79.25
20942;BME280;10630;53.734;10.282;2022-12-07T03:37:06;100653.63;;;7.72;82.28
20942;BME280;10630;53.734;10.282;2022-12-07T03:39:37;100648.81;;;7.85;81.11
20942;BME280;10630;53.734;10.282;2022-12-07T03:42:06;100645.22;;;8.31;75.74
20942;BME280;10630;53.734;10.282;2022-12-07T03:44:34;100652.72;;;7.99;81.13
20942;BME280;10630;53.734;10.282;2022-12-07T03:49:43;100667.25;;;6.84;83.54
20942;BME280;10630;53.734;10.282;2022-12-07T03:55:00;100662.56;;;7.15;83.46
20942;BME280;10630;53.734;10.282;2022-12-07T03:57:29;100654.28;;;7.28;86.65
20942;BME280;10630;53.734;10.282;2022-12-07T04:00:09;100649.41;;;6.95;85.90
20942;BME280;10630;53.734;10.282;2022-12-07T04:02:36;100653.41;;;7.83;84.14
20942;BME280;10630;53.734;10.282;2022-12-07T04:05:17;100666.78;;;6.51;84.10
20942;BME280;10630;53.734;10.282;2022-12-07T04:07:45;100661.84;;;7.23;83.64
20942;BME280;10630;53.734;10.282;2022-12-07T04:10:12;100670.19;;;7.18;85.42
20942;BME280;10630;53.734;10.282;2022-12-07T04:12:38;100672.59;;;6.64;90.92
20942;BME280;10630;53.734;10.282;2022-12-07T04:15:06;100662.34;;;6.99;86.24
20942;BME280;10630;53.734;10.282;2022-12-07T04:17:33;100666.81;;;6.21;87.09
20942;BME280;10630;53.734;10.282;2022-12-07T04:20:01;100664.56;;;6.26;91.62
20942;BME280;10630;53.734;10.282;2022-12-07T04:22:30;100664.06;;;6.80;90.52
20942;BME280;10630;53.734;10.282;2022-12-07T04:24:58;100671.66;;;6.45;92.59
20942;BME280;10630;53.734;10.282;2022-12-07T04:27:24;100664.66;;;5.95;93.06
20942;BME280;10630;53.734;10.282;2022-12-07T04:29:54;100670.69;;;6.37;92.97
20942;BME280;10630;53.734;10.282;2022-12-07T04:32:22;100666.72;;;5.62;89.51
20942;BME280;10630;53.734;10.282;2022-12-07T04:34:55;100667.00;;;6.67;90.13
20942;BME280;10630;53.734;10.282;2022-12-07T04:37:23;100676.13;;;6.06;91.29
20942;BME280;10630;53.734;10.282;2022-12-07T04:39:50;100680.44;;;6.46;92.08
20942;BME280;10630;53.734;10.282;2022-12-07T04:42:17;100678.47;;;6.28;92.51
20942;BME280;10630;53.734;10.282;2022-12-07T04:47:34;100694.06;;;6.51;89.78
20942;BME280;10630;53.734;10.282;2022-12-07T04:50:02;100686.69;;;6.35;90.50
20942;BME280;10630;53.734;10.282;2022-12-07T04:52:37;100682.63;;;6.41;87.66
20942;BME280;10630;53.734;10.282;2022-12-07T04:55:04;100686.84;;;6.43;88.19
20942;BME280;10630;53.734;10.282;2022-12-07T04:57:30;100684.00;;;6.64;89.71
20942;BME280;10630;53.734;10.282;2022-12-07T04:59:57;100681.53;;;6.33;87.46
20942;BME280;10630;53.734;10.282;2022-12-07T05:02:24;100678.72;;;5.86;89.52
20942;BME280;10630;53.734;10.282;2022-12-07T05:04:54;100670.69;;;6.27;90.49
20942;BME280;10630;53.734;10.282;2022-12-07T05:07:20;100680.09;;;6.78;87.57
20942;BME280;10630;53.734;10.282;2022-12-07T05:10:00;100680.13;;;6.69;85.82
20942;BME280;10630;53.734;10.282;2022-12-07T05:12:28;100677.72;;;6.85;85.90
20942;BME280;10630;53.734;10.282;2022-12-07T05:14:56;100682.47;;;7.19;83.97
20942;BME280;10630;53.734;10.282;2022-12-07T05:17:23;100677.91;;;7.02;85.98
20942;BME280;10630;53.734;10.282;2022-12-07T05:19:49;100677.63;;;6.57;83.11
20942;BME280;10630;53.734;10.282;2022-12-07T05:22:20;100676.88;;;7.22;83.99
20942;BME280;10630;53.734;10.282;2022-12-07T05:24:48;100676.19;;;7.48;79.01
20942;BME280;10630;53.734;10.282;2022-12-07T05:27:30;100673.94;;;8.53;76.97
20942;BME280;10630;53.734;10.282;2022-12-07T05:29:57;100668.00;;;8.60;74.60
20942;BME280;10630;53.734;10.282;2022-12-07T05:34:55;100668.19;;;8.84;70.29
20942;BME280;10630;53.734;10.282;2022-12-07T05:37:22;100659.19;;;8.77;70.23
20942;BME280;10630;53.734;10.282;2022-12-07T05:39:49;100662.75;;;8.68;69.18
20942;BME280;10630;53.734;10.282;2022-12-07T05:42:18;100669.41;;;8.72;68.85
20942;BME280;10630;53.734;10.282;2022-12-07T05:44:45;100667.44;;;8.74;68.53
20942;BME280;10630;53.734;10.282;2022-12-07T05:47:13;100661.34;;;8.55;68.74
20942;BME280;10630;53.734;10.282;2022-12-07T05:49:41;100664.16;;;8.36;68.74
20942;BME280;10630;53.734;10.282;2022-12-07T05:52:07;100671.97;;;8.19;68.79
20942;BME280;10630;53.734;10.282;2022-12-07T05:54:35;100669.16;;;7.85;69.20
20942;BME280;10630;53.734;10.282;2022-12-07T05:57:02;100658.09;;;8.26;69.79
20942;BME280;10630;53.734;10.282;2022-12-07T05:59:29;100658.00;;;8.35;68.54
20942;BME280;10630;53.734;10.282;2022-12-07T06:01:57;100652.09;;;8.42;68.27
20942;BME280;10630;53.734;10.282;2022-12-07T06:04:27;100653.03;;;8.32;67.96
20942;BME280;10630;53.734;10.282;2022-12-07T06:06:54;100651.72;;;8.36;67.62
20942;BME280;10630;53.734;10.282;2022-12-07T06:09:21;100651.59;;;8.38;67.18
20942;BME280;10630;53.734;10.282;2022-12-07T06:11:48;100655.81;;;8.13;67.33
20942;BME280;10630;53.734;10.282;2022-12-07T06:14:34;100651.44;;;8.21;67.92
20942;BME280;10630;53.734;10.282;2022-12-07T06:17:01;100657.50;;;7.96;67.31
20942;BME280;10630;53.734;10.282;2022-12-07T06:19:27;100661.38;;;7.83;68.51
20942;BME280;10630;53.734;10.282;2022-12-07T06:21:54;100651.75;;;7.82;69.05
20942;BME280;10630;53.734;10.282;2022-12-07T06:24:21;100651.38;;;7.77;68.86
20942;BME280;10630;53.734;10.282;2022-12-07T06:26:47;100647.22;;;7.92;68.64
20942;BME280;10630;53.734;10.282;2022-12-07T06:29:14;100652.19;;;7.96;68.17
20942;BME280;10630;53.734;10.282;2022-12-07T06:31:41;100645.00;;;8.06;67.58
20942;BME280;10630;53.734;10.282;2022-12-07T06:34:10;100646.38;;;7.92;68.28
20942;BME280;10630;53.734;10.282;2022-12-07T06:36:37;100650.97;;;7.90;68.08
20942;BME280;10630;53.734;10.282;2022-12-07T06:39:04;100646.75;;;8.15;67.33
20942;BME280;10630;53.734;10.282;2022-12-07T06:41:31;100650.84;;;7.91;67.49
20942;BME280;10630;53.734;10.282;2022-12-07T06:43:57;100647.06;;;8.12;67.17
20942;BME280;10630;53.734;10.282;2022-12-07T06:46:24;100649.63;;;8.04;66.63
20942;BME280;10630;53.734;10.282;2022-12-07T06:48:50;100648.94;;;8.02;67.10
20942;BME280;10630;53.734;10.282;2022-12-07T06:51:17;100648.03;;;7.93;67.71
20942;BME280;10630;53.734;10.282;2022-12-07T06:53:44;100655.75;;;7.86;68.10
20942;BME280;10630;53.734;10.282;2022-12-07T06:56:10;100652.53;;;7.92;67.99
20942;BME280;10630;53.734;10.282;2022-12-07T06:58:36;100645.31;;;7.85;68.16
20942;BME280;10630;53.734;10.282;2022-12-07T07:01:07;100649.81;;;7.74;68.35
20942;BME280;10630;53.734;10.282;2022-12-07T07:03:34;100657.16;;;7.63;68.23
20942;BME280;10630;53.734;10.282;2022-12-07T07:06:00;100657.28;;;7.89;68.23
20942;BME280;10630;53.734;10.282;2022-12-07T07:08:27;100654.78;;;7.87;67.93
20942;BME280;10630;53.734;10.282;2022-12-07T07:10:54;100659.41;;;7.85;68.60
20942;BME280;10630;53.734;10.282;2022-12-07T07:13:20;100652.47;;;7.56;68.77
20942;BME280;10630;53.734;10.282;2022-12-07T07:15:46;100651.28;;;7.87;68.45
20942;BME280;10630;53.734;10.282;2022-12-07T07:18:13;100659.59;;;7.74;68.38
20942;BME280;10630;53.734;10.282;2022-12-07T07:20:39;100659.25;;;7.87;68.33
20942;BME280;10630;53.734;10.282;2022-12-07T07:23:06;100659.59;;;7.74;68.04
20942;BME280;10630;53.734;10.282;2022-12-07T07:25:33;100658.81;;;7.64;68.62
20942;BME280;10630;53.734;10.282;2022-12-07T07:27:59;100666.56;;;7.75;69.02
20942;BME280;10630;53.734;10.282;2022-12-07T07:30:26;100659.84;;;7.81;69.44
20942;BME280;10630;53.734;10.282;2022-12-07T07:32:56;100658.47;;;7.76;69.79
20942;BME280;10630;53.734;10.282;2022-12-07T07:35:23;100663.84;;;8.03;68.80
20942;BME280;10630;53.734;10.282;2022-12-07T07:37:50;100665.56;;;7.30;71.23
20942;BME280;10630;53.734;10.282;2022-12-07T07:40:17;100665.00;;;7.82;70.62
20942;BME280;10630;53.734;10.282;2022-12-07T07:42:46;100670.13;;;8.20;69.44
20942;BME280;10630;53.734;10.282;2022-12-07T07:45:12;100673.56;;;8.12;68.63
20942;BME280;10630;53.734;10.282;2022-12-07T07:47:39;100667.41;;;7.93;69.14
20942;BME280;10630;53.734;10.282;2022-12-07T07:50:06;100679.06;;;7.83;69.23
20942;BME280;10630;53.734;10.282;2022-12-07T07:52:32;100678.50;;;7.89;68.88
20942;BME280;10630;53.734;10.282;2022-12-07T07:54:59;100671.44;;;7.80;70.21
20942;BME280;10630;53.734;10.282;2022-12-07T07:57:25;100669.63;;;7.98;70.01
20942;BME280;10630;53.734;10.282;2022-12-07T07:59:52;100678.06;;;7.66;71.06
20942;BME280;10630;53.734;10.282;2022-12-07T08:02:19;100677.81;;;8.05;70.83
20942;BME280;10630;53.734;10.282;2022-12-07T08:04:46;100676.28;;;7.84;69.74
20942;BME280;10630;53.734;10.282;2022-12-07T08:07:13;100675.97;;;7.87;69.91
20942;BME280;10630;53.734;10.282;2022-12-07T08:09:40;100674.00;;;8.26;70.16
20942;BME280;10630;53.734;10.282;2022-12-07T08:12:07;100684.09;;;8.22;68.92
20942;BME280;10630;53.734;10.282;2022-12-07T08:14:33;100680.06;;;8.36;69.14
20942;BME280;10630;53.734;10.282;2022-12-07T08:17:00;100678.41;;;8.53;68.80
20942;BME280;10630;53.734;10.282;2022-12-07T08:19:27;100679.16;;;8.45;69.18
20942;BME280;10630;53.734;10.282;2022-12-07T08:21:54;100680.28;;;8.61;68.15
20942;BME280;10630;53.734;10.282;2022-12-07T08:24:22;100680.75;;;8.56;68.38
20942;BME280;10630;53.734;10.282;2022-12-07T08:26:48;100673.06;;;8.71;67.72
20942;BME280;10630;53.734;10.282;2022-12-07T08:29:16;100674.75;;;8.36;69.45
20942;BME280;10630;53.734;10.282;2022-12-07T08:31:43;100673.00;;;8.45;69.01
20942;BME280;10630;53.734;10.282;2022-12-07T08:34:10;100674.75;;;8.54;68.27
20942;BME280;10630;53.734;10.282;2022-12-07T08:36:37;100671.31;;;8.44;69.19
20942;BME280;10630;53.734;10.282;2022-12-07T08:39:04;100666.50;;;8.39;68.79
20942;BME280;10630;53.734;10.282;2022-12-07T08:41:50;100670.22;;;8.46;69.02
20942;BME280;10630;53.734;10.282;2022-12-07T08:44:17;100658.75;;;8.46;69.53
20942;BME280;10630;53.734;10.282;2022-12-07T08:46:45;100668.03;;;8.42;69.93
20942;BME280;10630;53.734;10.282;2022-12-07T08:49:14;100672.41;;;8.69;68.71
20942;BME280;10630;53.734;10.282;2022-12-07T08:51:42;100672.13;;;8.80;69.02
20942;BME280;10630;53.734;10.282;2022-12-07T08:54:10;100674.59;;;8.82;68.23
20942;BME280;10630;53.734;10.282;2022-12-07T08:56:37;100679.09;;;8.37;68.48
20942;BME280;10630;53.734;10.282;2022-12-07T08:59:05;100675.22;;;8.49;70.14
20942;BME280;10630;53.734;10.282;2022-12-07T09:01:33;100678.28;;;8.81;69.57
20942;BME280;10630;53.734;10.282;2022-12-07T09:03:59;100684.59;;;9.14;68.21
20942;BME280;10630;53.734;10.282;2022-12-07T09:06:26;100684.69;;;9.05;68.33
20942;BME280;10630;53.734;10.282;2022-12-07T09:08:53;100680.72;;;9.35;67.47
20942;BME280;10630;53.734;10.282;2022-12-07T09:11:22;100692.19;;;9.09;67.00
20942;BME280;10630;53.734;10.282;2022-12-07T09:13:54;100681.91;;;9.06;67.89
20942;BME280;10630;53.734;10.282;2022-12-07T09:16:20;100674.03;;;9.23;67.95
20942;BME280;10630;53.734;10.282;2022-12-07T09:18:46;100679.25;;;9.06;68.43
20942;BME280;10630;53.734;10.282;2022-12-07T09:21:13;100671.25;;;9.32;67.98
20942;BME280;10630;53.734;10.282;2022-12-07T09:23:41;100688.69;;;8.74;68.68
20942;BME280;10630;53.734;10.282;2022-12-07T09:26:07;100682.91;;;9.05;69.04
20942;BME280;10630;53.734;10.282;2022-12-07T09:28:36;100688.94;;;9.24;69.24
20942;BME280;10630;53.734;10.282;2022-12-07T09:31:03;100680.28;;;9.13;68.70
20942;BME280;10630;53.734;10.282;2022-12-07T09:33:57;100681.38;;;9.37;67.79
20942;BME280;10630;53.734;10.282;2022-12-07T09:36:25;100680.41;;;9.46;67.76
20942;BME280;10630;53.734;10.282;2022-12-07T09:38:51;100682.53;;;9.34;67.68
20942;BME280;10630;53.734;10.282;2022-12-07T09:41:18;100682.03;;;9.39;68.36
20942;BME280;10630;53.734;10.282;2022-12-07T09:43:45;100690.53;;;9.43;67.92
20942;BME280;10630;53.734;10.282;2022-12-07T09:46:13;100678.63;;;9.12;67.90
20942;BME280;10630;53.734;10.282;2022-12-07T09:48:41;100679.69;;;9.28;68.37
20942;BME280;10630;53.734;10.282;2022-12-07T09:51:13;100683.34;;;9.27;68.68
20942;BME280;10630;53.734;10.282;2022-12-07T09:53:47;100680.81;;;9.17;69.23
20942;BME280;10630;53.734;10.282;2022-12-07T09:56:16;100682.88;;;9.40;68.54
20942;BME280;10630;53.734;10.282;2022-12-07T09:58:43;100680.34;;;9.64;68.14
20942;BME280;10630;53.734;10.282;2022-12-07T10:01:12;100681.91;;;9.92;66.99
20942;BME280;10630;53.734;10.282;2022-12-07T10:03:45;100676.56;;;10.00;66.37
20942;BME280;10630;53.734;10.282;2022-12-07T10:06:14;100682.31;;;9.62;66.93
20942;BME280;10630;53.734;10.282;2022-12-07T10:08:41;100672.56;;;9.88;67.04
20942;BME280;10630;53.734;10.282;2022-12-07T10:11:10;100672.97;;;9.58;66.64
20942;BME280;10630;53.734;10.282;2022-12-07T10:13:38;100659.34;;;10.37;66.22
20942;BME280;10630;53.734;10.282;2022-12-07T10:16:05;100669.09;;;10.20;66.93
20942;BME280;10630;53.734;10.282;2022-12-07T10:21:00;100660.97;;;10.13;66.67
20942;BME280;10630;53.734;10.282;2022-12-07T10:23:28;100668.47;;;10.59;65.47
20942;BME280;10630;53.734;10.282;2022-12-07T10:25:55;100665.97;;;10.25;65.01
20942;BME280;10630;53.734;10.282;2022-12-07T10:28:21;100673.47;;;9.62;67.18
20942;BME280;10630;53.734;10.282;2022-12-07T10:30:59;100665.91;;;9.75;67.53
20942;BME280;10630;53.734;10.282;2022-12-07T10:33:33;100668.81;;;10.56;65.87
20942;BME280;10630;53.734;10.282;2022-12-07T10:36:01;100670.59;;;9.98;65.47
20942;BME280;10630;53.734;10.282;2022-12-07T10:38:44;100668.97;;;10.47;65.01
20942;BME280;10630;53.734;10.282;2022-12-07T10:41:10;100661.00;;;10.47;64.46
20942;BME280;10630;53.734;10.282;2022-12-07T10:43:37;100664.44;;;9.97;64.07
20942;BME280;10630;53.734;10.282;2022-12-07T10:54:26;100665.63;;;10.28;64.29
20942;BME280;10630;53.734;10.282;2022-12-07T10:57:08;100653.31;;;10.10;63.60
20942;BME280;10630;53.734;10.282;2022-12-07T11:07:52;100648.13;;;9.84;65.92
20942;BME280;10630;53.734;10.282;2022-12-07T11:10:26;100651.66;;;10.09;65.18
20942;BME280;10630;53.734;10.282;2022-12-07T11:13:19;100650.50;;;8.67;66.51
20942;BME280;10630;53.734;10.282;2022-12-07T11:21:40;100637.34;;;10.76;63.32
20942;BME280;10630;53.734;10.282;2022-12-07T11:24:14;100629.38;;;10.68;62.79
20942;BME280;10630;53.734;10.282;2022-12-07T11:27:03;100626.22;;;10.32;64.71
20942;BME280;10630;53.734;10.282;2022-12-07T11:29:45;100629.88;;;10.22;63.19
20942;BME280;10630;53.734;10.282;2022-12-07T11:37:13;100634.22;;;10.32;61.30
20942;BME280;10630;53.734;10.282;2022-12-07T11:39:52;100630.03;;;10.54;61.82
20942;BME280;10630;53.734;10.282;2022-12-07T11:42:21;100628.38;;;9.19;62.03
20942;BME280;10630;53.734;10.282;2022-12-07T11:44:56;100625.91;;;9.34;62.79
20942;BME280;10630;53.734;10.282;2022-12-07T11:47:38;100627.69;;;8.82;63.08
20942;BME280;10630;53.734;10.282;2022-12-07T11:52:57;100619.94;;;8.63;63.75
20942;BME280;10630;53.734;10.282;2022-12-07T11:55:30;100621.91;;;9.22;63.84
20942;BME280;10630;53.734;10.282;2022-12-07T11:58:42;100621.97;;;9.38;62.34
20942;BME280;10630;53.734;10.282;2022-12-07T12:00:49;100627.81;;;8.10;63.29
20942;BME280;10630;53.734;10.282;2022-12-07T12:03:25;100629.69;;;8.36;62.90
20942;BME280;10630;53.734;10.282;2022-12-07T12:05:57;100630.38;;;8.38;61.17
20942;BME280;10630;53.734;10.282;2022-12-07T12:08:30;100620.69;;;8.29;61.71
20942;BME280;10630;53.734;10.282;2022-12-07T12:11:27;100620.56;;;8.83;60.90
20942;BME280;10630;53.734;10.282;2022-12-07T12:22:13;100627.66;;;7.93;58.95
20942;BME280;10630;53.734;10.282;2022-12-07T12:24:41;100631.16;;;7.76;59.15
20942;BME280;10630;53.734;10.282;2022-12-07T12:27:16;100631.16;;;7.76;59.83
20942;BME280;10630;53.734;10.282;2022-12-07T12:29:44;100632.56;;;8.06;58.30
20942;BME280;10630;53.734;10.282;2022-12-07T12:32:19;100630.09;;;8.05;58.39
20942;BME280;10630;53.734;10.282;2022-12-07T12:42:49;100620.25;;;8.15;56.32
20942;BME280;10630;53.734;10.282;2022-12-07T12:45:21;100622.66;;;7.54;55.38
20942;BME280;10630;53.734;10.282;2022-12-07T12:50:21;100621.59;;;8.19;56.51
20942;BME280;10630;53.734;10.282;2022-12-07T12:52:49;100626.69;;;7.31;55.66
20942;BME280;10630;53.734;10.282;2022-12-07T12:55:17;100621.88;;;7.44;55.80
20942;BME280;10630;53.734;10.282;2022-12-07T12:58:21;100625.34;;;8.35;55.04
20942;BME280;10630;53.734;10.282;2022-12-07T13:00:34;100623.66;;;7.89;55.14
20942;BME280;10630;53.734;10.282;2022-12-07T13:03:01;100625.78;;;7.68;55.21
20942;BME280;10630;53.734;10.282;2022-12-07T13:05:28;100623.13;;;7.86;54.24
20942;BME280;10630;53.734;10.282;2022-12-07T13:18:24;100624.38;;;7.64;54.07
20942;BME280;10630;53.734;10.282;2022-12-07T13:23:19;100624.63;;;7.88;53.55
20942;BME280;10630;53.734;10.282;2022-12-07T13:26:01;100635.41;;;7.13;53.06
20942;BME280;10630;53.734;10.282;2022-12-07T13:28:32;100623.50;;;7.73;53.18
20942;BME280;10630;53.734;10.282;2022-12-07T13:33:27;100623.19;;;7.58;53.15
20942;BME280;10630;53.734;10.282;2022-12-07T13:35:55;100626.66;;;7.12;53.02
20942;BME280;10630;53.734;10.282;2022-12-07T13:38:30;100635.03;;;6.98;53.77
20942;BME280;10630;53.734;10.282;2022-12-07T13:41:10;100634.59;;;7.12;53.44
20942;BME280;10630;53.734;10.282;2022-12-07T13:43:44;100629.56;;;7.65;53.17
20942;BME280;10630;53.734;10.282;2022-12-07T13:46:11;100628.69;;;7.19;53.28
20942;BME280;10630;53.734;10.282;2022-12-07T13:48:46;100619.41;;;7.97;52.97
20942;BME280;10630;53.734;10.282;2022-12-07T13:53:55;100629.84;;;7.62;52.60
20942;BME280;10630;53.734;10.282;2022-12-07T13:56:24;100636.63;;;6.81;53.02
20942;BME280;10630;53.734;10.282;2022-12-07T13:58:53;100640.84;;;7.39;53.82
20942;BME280;10630;53.734;10.282;2022-12-07T14:01:20;100642.66;;;7.11;53.56
20942;BME280;10630;53.734;10.282;2022-12-07T14:03:47;100635.56;;;7.85;52.45
20942;BME280;10630;53.734;10.282;2022-12-07T14:06:16;100640.03;;;7.39;52.64
20942;BME280;10630;53.734;10.282;2022-12-07T14:08:43;100637.63;;;7.64;52.70
20942;BME280;10630;53.734;10.282;2022-12-07T14:11:12;100643.38;;;7.59;52.16
20942;BME280;10630;53.734;10.282;2022-12-07T14:18:43;100630.56;;;8.45;51.21
20942;BME280;10630;53.734;10.282;2022-12-07T14:23:39;100634.22;;;8.62;50.83
20942;BME280;10630;53.734;10.282;2022-12-07T14:26:13;100643.50;;;8.03;50.24
20942;BME280;10630;53.734;10.282;2022-12-07T14:28:40;100642.13;;;7.35;52.23
20942;BME280;10630;53.734;10.282;2022-12-07T14:31:11;100644.16;;;7.87;52.14
20942;BME280;10630;53.734;10.282;2022-12-07T14:33:45;100640.63;;;7.97;51.76
20942;BME280;10630;53.734;10.282;2022-12-07T14:36:12;100648.22;;;7.18;50.97
20942;BME280;10630;53.734;10.282;2022-12-07T14:38:39;100639.41;;;7.91;52.01
20942;BME280;10630;53.734;10.282;2022-12-07T14:41:10;100640.31;;;7.36;51.15
20942;BME280;10630;53.734;10.282;2022-12-07T14:44:00;100634.31;;;7.62;51.39
20942;BME280;10630;53.734;10.282;2022-12-07T14:46:52;100638.13;;;7.95;51.01
20942;BME280;10630;53.734;10.282;2022-12-07T14:49:42;100635.03;;;8.62;50.37
20942;BME280;10630;53.734;10.282;2022-12-07T14:52:33;100639.09;;;7.94;49.80
20942;BME280;10630;53.734;10.282;2022-12-07T14:55:25;100642.22;;;7.89;51.35
20942;BME280;10630;53.734;10.282;2022-12-07T14:57:58;100633.09;;;7.74;50.32